Time;durP1;ratioP1;P1;durP2;ratioP2;P2;SDS_P1;SDS_P2;PMS_P1;PMS_P2;Temp;Humidity;BMP_temperature;BMP_pressure;BME280_temperature;BME280_humidity;BME280_pressure;Samples;Min_cycle;Max_cycle;Signal;HPM_P1;HPM_P2
2024/02/02 00:03:07;;;;;;;15.77;4.63;;;5.60;99.90;;;;;;8455266;28;20062;-72
2024/02/02 00:07:09;;;;;;;14.93;4.30;;;5.60;99.90;;;;;;8443163;28;20558;-72
2024/02/02 00:11:11;;;;;;;14.40;4.20;;;5.60;99.90;;;;;;8435453;28;20050;-72
2024/02/02 00:15:13;;;;;;;8.05;3.33;;;5.70;99.90;;;;;;8449126;28;20053;-72
2024/02/02 00:20:05;;;;;;;15.93;5.05;;;5.70;99.90;;;;;;8432497;28;20097;-72
2024/02/02 00:24:07;;;;;;;15.35;5.00;;;5.70;99.90;;;;;;8445341;28;20044;-72
2024/02/02 00:28:09;;;;;;;11.00;3.95;;;5.70;99.90;;;;;;8448510;28;20035;-72
2024/02/02 00:32:14;;;;;;;13.88;3.97;;;5.70;99.90;;;;;;8437034;28;20044;-72
2024/02/02 00:36:16;;;;;;;9.93;3.58;;;5.80;99.90;;;;;;8430960;28;20048;-72
2024/02/02 00:40:18;;;;;;;12.88;3.30;;;5.80;99.90;;;;;;8450762;28;20062;-72
2024/02/02 00:44:21;;;;;;;6.78;2.95;;;5.80;99.90;;;;;;8453079;28;20109;-72
2024/02/02 00:48:23;;;;;;;12.23;3.60;;;5.80;99.90;;;;;;8447142;28;20039;-72
2024/02/02 00:52:25;;;;;;;13.70;3.65;;;5.90;99.90;;;;;;8459080;28;20051;-72
2024/02/02 00:56:27;;;;;;;10.05;3.20;;;5.90;99.90;;;;;;8455953;28;20052;-72
2024/02/02 01:00:29;;;;;;;11.13;3.90;;;5.90;99.90;;;;;;8459815;28;20059;-72
2024/02/02 01:04:31;;;;;;;14.48;3.33;;;6.00;99.90;;;;;;8454496;27;20044;-72
2024/02/02 01:08:33;;;;;;;10.48;2.70;;;6.00;99.90;;;;;;8441124;27;20040;-72
2024/02/02 01:12:35;;;;;;;11.02;3.25;;;6.00;99.90;;;;;;8454478;27;20043;-72
2024/02/02 01:16:37;;;;;;;8.38;2.92;;;6.10;99.90;;;;;;8459455;27;20400;-72
2024/02/02 01:20:39;;;;;;;8.13;2.72;;;6.10;99.90;;;;;;8454927;27;20048;-72
2024/02/02 01:24:40;;;;;;;9.75;3.00;;;6.10;99.90;;;;;;8446702;27;20381;-72
2024/02/02 01:28:42;;;;;;;10.63;3.10;;;6.10;99.90;;;;;;8453546;27;20380;-72
2024/02/02 01:32:44;;;;;;;11.32;3.30;;;6.10;99.90;;;;;;8446022;27;20044;-72
2024/02/02 01:36:46;;;;;;;12.57;3.00;;;6.10;99.90;;;;;;8455433;27;20071;-72
2024/02/02 01:40:48;;;;;;;10.90;2.97;;;6.20;99.90;;;;;;8455394;27;20086;-72
2024/02/02 01:44:50;;;;;;;12.07;3.17;;;6.20;99.90;;;;;;8462495;27;20044;-72
2024/02/02 01:48:52;;;;;;;14.93;3.65;;;6.10;99.90;;;;;;8437202;27;20098;-72
2024/02/02 01:53:00;;;;;;;10.63;3.53;;;6.10;99.90;;;;;;8426143;27;20089;-72
2024/02/02 02:02:12;;;;;;;13.55;4.40;;;6.10;99.90;;;;;;8451840;27;19915;-72
2024/02/02 02:06:14;;;;;;;10.82;3.60;;;6.10;99.90;;;;;;8442556;27;20047;-72
2024/02/02 02:10:17;;;;;;;11.93;4.25;;;6.10;99.90;;;;;;8456677;27;20043;-72
2024/02/02 02:14:19;;;;;;;12.48;4.70;;;6.10;99.90;;;;;;8422187;27;20047;-71
2024/02/02 02:18:21;;;;;;;14.60;4.28;;;6.10;99.90;;;;;;8467648;27;20414;-72
2024/02/02 02:22:23;;;;;;;9.65;3.55;;;6.10;99.90;;;;;;8441044;27;20071;-72
2024/02/02 02:26:28;;;;;;;10.43;3.42;;;6.10;99.90;;;;;;8445783;27;20083;-72
2024/02/02 02:30:30;;;;;;;12.65;5.68;;;6.10;99.90;;;;;;8466027;27;20048;-71
2024/02/02 02:34:32;;;;;;;14.55;4.43;;;6.10;99.90;;;;;;8448096;27;20066;-72
2024/02/02 02:38:35;;;;;;;9.15;4.20;;;6.10;99.90;;;;;;8469033;27;20544;-72
2024/02/02 02:42:36;;;;;;;12.85;4.38;;;6.10;99.90;;;;;;8436085;27;20117;-72
2024/02/02 02:46:39;;;;;;;17.02;5.40;;;6.10;99.90;;;;;;8463856;27;20051;-72
2024/02/02 02:50:41;;;;;;;13.32;4.35;;;6.10;99.90;;;;;;8459122;27;20063;-72
2024/02/02 02:54:43;;;;;;;10.25;4.70;;;6.10;99.90;;;;;;8439096;27;20149;-72
2024/02/02 02:58:45;;;;;;;12.48;4.20;;;6.00;99.90;;;;;;8454081;27;20436;-72
2024/02/02 03:02:46;;;;;;;12.75;3.72;;;6.00;99.90;;;;;;8458416;27;20384;-72
2024/02/02 03:06:48;;;;;;;13.55;3.97;;;6.00;99.90;;;;;;8446140;27;20487;-72
2024/02/02 03:10:50;;;;;;;8.32;3.08;;;5.90;99.90;;;;;;8437988;27;20050;-72
2024/02/02 03:14:52;;;;;;;12.77;4.20;;;5.90;99.90;;;;;;8439084;27;20367;-72
2024/02/02 03:18:54;;;;;;;9.35;3.92;;;5.90;99.90;;;;;;8457445;28;20044;-72
2024/02/02 03:22:56;;;;;;;12.77;4.68;;;5.80;99.90;;;;;;8452597;27;20051;-72
2024/02/02 03:26:57;;;;;;;12.95;4.20;;;5.80;99.90;;;;;;8441409;27;20044;-72
2024/02/02 03:30:59;;;;;;;9.10;3.20;;;5.80;99.90;;;;;;8452472;27;20483;-72
2024/02/02 03:35:01;;;;;;;14.80;3.55;;;5.80;99.90;;;;;;8450689;27;20047;-72
2024/02/02 03:39:03;;;;;;;10.52;3.50;;;5.70;99.90;;;;;;8445414;28;20153;-72
2024/02/02 03:43:05;;;;;;;10.30;3.53;;;5.70;99.90;;;;;;8441193;28;20551;-72
2024/02/02 03:47:25;;;;;;;12.95;3.60;;;5.70;99.90;;;;;;8437141;27;20079;-72
2024/02/02 03:51:27;;;;;;;11.45;3.17;;;5.70;99.90;;;;;;8464505;27;20081;-71
2024/02/02 03:55:29;;;;;;;12.25;3.45;;;5.70;99.90;;;;;;8443429;28;20059;-72
2024/02/02 03:59:31;;;;;;;11.40;3.17;;;5.70;99.90;;;;;;8455850;27;20047;-72
2024/02/02 04:03:33;;;;;;;9.35;3.22;;;5.70;99.90;;;;;;8449450;27;20039;-72
2024/02/02 04:07:35;;;;;;;7.47;3.00;;;5.70;99.90;;;;;;8452657;27;20044;-72
2024/02/02 04:11:37;;;;;;;13.30;3.40;;;5.70;99.90;;;;;;8451912;27;20070;-72
2024/02/02 04:15:39;;;;;;;12.60;3.38;;;5.80;99.90;;;;;;8449348;28;20109;-72
2024/02/02 04:19:41;;;;;;;12.93;3.35;;;5.80;99.90;;;;;;8436543;28;20050;-72
2024/02/02 04:23:43;;;;;;;9.32;3.25;;;5.80;99.90;;;;;;8438923;28;20097;-72
2024/02/02 04:27:45;;;;;;;11.57;3.53;;;5.80;99.90;;;;;;8439169;28;20036;-71
2024/02/02 04:31:47;;;;;;;11.93;3.25;;;5.80;99.90;;;;;;8441620;28;20048;-72
2024/02/02 04:35:49;;;;;;;10.27;3.20;;;5.80;99.90;;;;;;8436842;28;20050;-72
2024/02/02 04:39:51;;;;;;;12.45;3.35;;;5.80;99.90;;;;;;8463031;27;20050;-72
2024/02/02 04:43:53;;;;;;;9.55;3.00;;;5.80;99.90;;;;;;8463416;27;20051;-72
2024/02/02 04:47:54;;;;;;;14.05;3.33;;;5.80;99.90;;;;;;8437844;27;20388;-72
2024/02/02 04:51:57;;;;;;;9.45;2.83;;;5.80;99.90;;;;;;8453898;27;20047;-72
2024/02/02 04:55:59;;;;;;;16.55;3.08;;;5.80;99.90;;;;;;8440883;27;20059;-72
2024/02/02 05:00:01;;;;;;;11.05;2.72;;;5.80;99.90;;;;;;8438057;27;20146;-72
2024/02/02 05:04:03;;;;;;;9.68;3.35;;;5.80;99.90;;;;;;8455067;27;20396;-72
2024/02/02 05:08:05;;;;;;;7.63;2.60;;;5.70;99.90;;;;;;8458092;27;20043;-72
2024/02/02 05:12:07;;;;;;;9.48;2.85;;;5.70;99.90;;;;;;8454013;27;20074;-72
2024/02/02 05:16:09;;;;;;;7.63;2.80;;;5.70;99.90;;;;;;8457691;27;20080;-71
2024/02/02 05:20:16;;;;;;;8.82;2.35;;;5.70;99.90;;;;;;8446387;27;20138;-72
2024/02/02 05:24:17;;;;;;;13.60;2.30;;;5.60;99.90;;;;;;8444612;27;20120;-72
2024/02/02 05:28:40;;;;;;;7.57;2.35;;;5.60;99.90;;;;;;8455683;27;20048;-71
2024/02/02 05:32:42;;;;;;;14.65;3.28;;;5.60;99.90;;;;;;8444725;28;20173;-72
2024/02/02 05:36:44;;;;;;;8.15;2.85;;;5.60;99.90;;;;;;8455232;28;20142;-72
2024/02/02 05:40:46;;;;;;;9.35;2.40;;;5.60;99.90;;;;;;8440494;28;20510;-72
2024/02/02 05:44:48;;;;;;;7.45;2.53;;;5.60;99.90;;;;;;8456446;27;20044;-72
2024/02/02 05:54:12;;;;;;;12.30;3.08;;;5.50;99.90;;;;;;8456914;28;20560;-72
2024/02/02 05:58:14;;;;;;;9.65;3.10;;;5.50;99.90;;;;;;8460196;28;20046;-72
2024/02/02 06:02:15;;;;;;;10.55;2.80;;;5.50;99.90;;;;;;8457681;28;20039;-72
2024/02/02 06:06:17;;;;;;;9.30;3.35;;;5.50;99.90;;;;;;8438721;28;20040;-72
2024/02/02 06:10:19;;;;;;;17.23;3.58;;;5.40;99.90;;;;;;8452013;28;20131;-72
2024/02/02 06:14:25;;;;;;;10.82;2.78;;;5.40;99.90;;;;;;8438208;27;20043;-72
2024/02/02 06:18:27;;;;;;;10.13;3.15;;;5.40;99.90;;;;;;8454074;28;20502;-71
2024/02/02 06:22:29;;;;;;;13.57;3.40;;;5.40;99.90;;;;;;8439398;28;20048;-72
2024/02/02 06:26:30;;;;;;;14.40;4.10;;;5.40;99.90;;;;;;8435794;28;20051;-72
2024/02/02 06:30:33;;;;;;;10.75;2.80;;;5.50;99.90;;;;;;8445159;28;20483;-72
2024/02/02 06:34:36;;;;;;;16.27;3.45;;;5.50;99.90;;;;;;8437662;28;20104;-72
2024/02/02 06:38:37;;;;;;;12.73;3.20;;;5.50;99.90;;;;;;8447972;28;20048;-71
2024/02/02 06:42:39;;;;;;;9.95;2.88;;;5.50;99.90;;;;;;8451845;27;20104;-72
2024/02/02 06:46:41;;;;;;;22.35;3.83;;;5.60;99.90;;;;;;8450417;28;20093;-71
2024/02/02 06:50:44;;;;;;;8.25;2.88;;;5.60;99.90;;;;;;8454825;28;20039;-72
2024/02/02 06:54:46;;;;;;;9.50;3.10;;;5.60;99.90;;;;;;8451174;27;20101;-72
2024/02/02 06:58:49;;;;;;;12.43;3.70;;;5.70;99.90;;;;;;8444309;28;20476;-72
2024/02/02 07:02:51;;;;;;;15.05;3.35;;;5.70;99.90;;;;;;8454544;28;20054;-72
2024/02/02 07:06:53;;;;;;;12.98;3.92;;;5.70;99.90;;;;;;8451966;28;20087;-72
2024/02/02 07:11:13;;;;;;;12.30;3.70;;;5.80;99.90;;;;;;8443459;28;20090;-72
2024/02/02 07:15:17;;;;;;;10.23;3.90;;;5.80;99.90;;;;;;8450411;28;20070;-72
2024/02/02 07:19:37;;;;;;;14.73;3.90;;;5.80;99.90;;;;;;8444557;27;20051;-72
2024/02/02 07:23:41;;;;;;;14.77;4.18;;;5.80;99.90;;;;;;8453646;27;20403;-72
2024/02/02 07:27:56;;;;;;;10.43;3.58;;;5.90;99.90;;;;;;8442590;28;20471;-72
2024/02/02 07:32:01;;;;;;;8.02;3.22;;;5.90;99.90;;;;;;8455354;28;20050;-72
2024/02/02 07:36:04;;;;;;;18.00;4.18;;;5.90;99.90;;;;;;8454957;28;20059;-72
2024/02/02 07:40:58;;;;;;;16.35;4.07;;;5.90;99.90;;;;;;8455205;27;20444;-72
2024/02/02 07:44:59;;;;;;;12.95;3.90;;;5.90;99.90;;;;;;8441016;27;20482;-72
2024/02/02 07:49:03;;;;;;;9.15;3.63;;;5.90;99.90;;;;;;8462368;27;20039;-72
2024/02/02 07:53:05;;;;;;;11.27;3.47;;;5.90;99.90;;;;;;8445346;27;20043;-73
2024/02/02 07:57:07;;;;;;;16.73;4.70;;;6.00;99.90;;;;;;8463322;27;22507;-72
2024/02/02 08:01:10;;;;;;;16.30;4.03;;;6.00;99.90;;;;;;8457807;27;20039;-72
2024/02/02 08:05:12;;;;;;;15.77;4.03;;;6.00;99.90;;;;;;8450156;28;20478;-71
2024/02/02 08:09:14;;;;;;;16.83;3.78;;;6.10;99.90;;;;;;8431079;28;20092;-72
2024/02/02 08:13:16;;;;;;;14.95;3.63;;;6.10;99.90;;;;;;8446364;28;20506;-72
2024/02/02 08:17:18;;;;;;;13.70;3.67;;;6.10;99.90;;;;;;8441883;28;20073;-72
2024/02/02 08:21:21;;;;;;;15.20;4.28;;;6.20;99.90;;;;;;8454525;28;20487;-72
2024/02/02 08:25:22;;;;;;;13.23;3.95;;;6.20;99.90;;;;;;8437196;28;20047;-71
2024/02/02 08:29:24;;;;;;;12.63;3.85;;;6.20;99.90;;;;;;8448159;28;20498;-72
2024/02/02 08:33:26;;;;;;;9.65;3.50;;;6.30;99.90;;;;;;8432681;28;20101;-72
2024/02/02 08:37:28;;;;;;;17.98;4.47;;;6.30;99.90;;;;;;8453995;28;20039;-72
2024/02/02 08:41:30;;;;;;;13.32;3.95;;;6.40;99.90;;;;;;8435239;28;20040;-72
2024/02/02 08:45:41;;;;;;;12.45;3.55;;;6.40;99.90;;;;;;8444328;28;20138;-72
2024/02/02 08:49:58;;;;;;;13.40;3.72;;;6.50;99.90;;;;;;8453065;28;20131;-72
2024/02/02 08:54:15;;;;;;;15.05;4.00;;;6.60;99.90;;;;;;8443131;28;20523;-72
2024/02/02 08:58:27;;;;;;;16.73;4.00;;;6.70;99.90;;;;;;8450502;28;20058;-72
2024/02/02 09:02:35;;;;;;;17.48;4.65;;;6.80;99.90;;;;;;8447826;28;20180;-72
2024/02/02 09:06:39;;;;;;;20.48;6.07;;;6.80;99.90;;;;;;8447124;28;20040;-72
2024/02/02 09:10:44;;;;;;;21.98;4.63;;;6.90;99.90;;;;;;8436119;28;20693;-72
2024/02/02 09:14:46;;;;;;;12.82;4.35;;;7.00;99.90;;;;;;8441036;28;20487;-73
2024/02/02 09:18:54;;;;;;;13.40;4.45;;;7.00;99.90;;;;;;8445999;28;20067;-72
2024/02/02 09:22:59;;;;;;;11.88;4.53;;;7.10;99.90;;;;;;8436467;27;20041;-72
2024/02/02 09:27:01;;;;;;;13.02;4.57;;;7.10;99.90;;;;;;8437230;28;20130;-72
2024/02/02 09:31:06;;;;;;;24.73;6.05;;;7.20;99.90;;;;;;8447182;27;20412;-72
2024/02/02 09:35:28;;;;;;;16.05;4.65;;;7.30;99.90;;;;;;8457401;27;20624;-71
2024/02/02 09:39:50;;;;;;;9.80;4.60;;;7.30;99.90;;;;;;8457851;28;20043;-72
2024/02/02 09:44:09;;;;;;;15.55;5.60;;;7.30;99.90;;;;;;8454420;27;20068;-72
2024/02/02 09:48:23;;;;;;;19.75;6.07;;;7.40;99.90;;;;;;8447617;28;20063;-72
2024/02/02 09:52:38;;;;;;;17.52;6.18;;;7.40;99.90;;;;;;8460113;28;20460;-72
2024/02/02 09:56:40;;;;;;;14.27;5.70;;;7.40;99.90;;;;;;8446856;28;20121;-72
2024/02/02 10:00:41;;;;;;;20.10;6.00;;;7.40;99.90;;;;;;8457397;28;20086;-72
2024/02/02 10:05:22;;;;;;;11.73;5.07;;;7.50;99.90;;;;;;8441185;27;20122;-72
2024/02/02 10:09:51;;;;;;;14.05;5.00;;;7.60;99.90;;;;;;8447530;27;21213;-72
2024/02/02 10:13:59;;;;;;;18.27;6.20;;;7.60;99.90;;;;;;8454966;28;20047;-72
2024/02/02 10:18:25;;;;;;;17.80;6.10;;;7.70;99.90;;;;;;8451472;28;20468;-72
2024/02/02 10:22:50;;;;;;;23.20;6.50;;;7.70;99.90;;;;;;8455878;28;20047;-72
2024/02/02 10:27:14;;;;;;;16.35;6.13;;;7.80;99.90;;;;;;8437700;28;20386;-72
2024/02/02 10:31:38;;;;;;;17.10;6.25;;;7.90;99.90;;;;;;8456534;28;20052;-72
2024/02/02 10:36:04;;;;;;;18.20;5.95;;;7.90;99.90;;;;;;8451968;28;20456;-72
2024/02/02 10:40:10;;;;;;;17.80;6.45;;;8.00;99.90;;;;;;8449484;27;20143;-72
2024/02/02 10:44:34;;;;;;;19.15;7.28;;;8.00;99.90;;;;;;8440730;28;20455;-72
2024/02/02 10:48:39;;;;;;;19.88;7.25;;;8.10;99.90;;;;;;8459159;28;20051;-72
2024/02/02 10:52:53;;;;;;;20.77;7.47;;;8.10;99.90;;;;;;8452550;28;20457;-72
2024/02/02 10:57:17;;;;;;;19.45;8.07;;;8.10;99.90;;;;;;8449216;28;20052;-72
2024/02/02 11:01:31;;;;;;;23.80;7.95;;;8.10;99.90;;;;;;8451239;27;20047;-72
2024/02/02 11:05:55;;;;;;;20.77;7.38;;;8.10;99.90;;;;;;8425928;27;20329;-71
2024/02/02 11:10:05;;;;;;;23.73;8.13;;;8.10;99.90;;;;;;8448198;28;20452;-71
2024/02/02 11:14:15;;;;;;;25.05;8.95;;;8.10;99.90;;;;;;8449847;28;20040;-72
2024/02/02 11:18:41;;;;;;;19.13;7.93;;;8.10;99.90;;;;;;8449804;28;20242;-72
2024/02/02 11:22:54;;;;;;;21.80;9.57;;;8.10;99.90;;;;;;8451793;28;20052;-72
2024/02/02 11:27:15;;;;;;;21.42;8.77;;;8.10;99.90;;;;;;8447449;28;20035;-72
2024/02/02 11:31:40;;;;;;;21.35;9.38;;;8.10;99.90;;;;;;8445712;28;20047;-71
2024/02/02 11:36:08;;;;;;;22.67;8.80;;;8.10;99.90;;;;;;8438882;28;20039;-72
2024/02/02 11:40:12;;;;;;;17.13;7.75;;;8.20;99.90;;;;;;8431652;27;20546;-72
2024/02/02 11:44:15;;;;;;;23.85;7.95;;;8.20;99.90;;;;;;8451440;28;20458;-72
2024/02/02 11:48:38;;;;;;;20.08;9.02;;;8.20;99.90;;;;;;8453881;28;20039;-72
2024/02/02 11:52:42;;;;;;;22.15;9.45;;;8.20;99.90;;;;;;8447896;28;20075;-72
2024/02/02 11:56:48;;;;;;;23.80;9.52;;;8.20;99.90;;;;;;8441671;28;20071;-72
2024/02/02 12:01:12;;;;;;;24.25;8.70;;;8.20;99.90;;;;;;8449339;27;20048;-71
2024/02/02 12:05:20;;;;;;;25.02;8.95;;;8.20;99.90;;;;;;8444792;27;20411;-73
2024/02/02 12:09:31;;;;;;;20.20;8.10;;;8.20;99.90;;;;;;8449458;28;20491;-72
2024/02/02 12:13:36;;;;;;;24.70;8.30;;;8.20;99.90;;;;;;8431749;28;20039;-72
2024/02/02 12:17:38;;;;;;;22.95;8.65;;;8.20;99.90;;;;;;8446559;28;20100;-71
2024/02/02 12:21:40;;;;;;;21.48;8.60;;;8.20;99.90;;;;;;8454861;28;20047;-72
2024/02/02 12:25:42;;;;;;;21.05;7.30;;;8.30;99.90;;;;;;8442482;28;20040;-72
2024/02/02 12:29:44;;;;;;;19.35;6.22;;;8.30;99.90;;;;;;8428629;28;20040;-72
2024/02/02 12:33:46;;;;;;;18.35;6.47;;;8.40;99.90;;;;;;8421147;28;20384;-72
2024/02/02 12:37:50;;;;;;;19.90;6.22;;;8.50;99.90;;;;;;8421296;28;20105;-72
2024/02/02 12:41:55;;;;;;;14.82;4.95;;;8.50;99.90;;;;;;8422764;28;20055;-71
2024/02/02 12:45:57;;;;;;;22.92;6.05;;;8.60;99.90;;;;;;8418273;28;20048;-72
2024/02/02 12:50:00;;;;;;;17.45;5.03;;;8.60;99.90;;;;;;8424373;28;20044;-72
2024/02/02 12:54:02;;;;;;;16.23;5.00;;;8.70;99.90;;;;;;8414224;28;20048;-72
2024/02/02 12:58:04;;;;;;;12.30;3.92;;;8.70;99.90;;;;;;8423252;28;20125;-72
2024/02/02 13:02:07;;;;;;;15.43;4.60;;;8.80;99.90;;;;;;8443658;28;20055;-72
2024/02/02 13:06:10;;;;;;;17.70;3.88;;;8.80;99.90;;;;;;8441452;28;20063;-72
2024/02/02 13:10:12;;;;;;;11.93;3.80;;;8.90;99.90;;;;;;8426995;28;20126;-72
2024/02/02 13:14:29;;;;;;;12.68;4.18;;;8.90;99.90;;;;;;8430896;28;20694;-72
2024/02/02 13:18:35;;;;;;;11.60;4.28;;;8.90;99.90;;;;;;8427097;28;20109;-72
2024/02/02 13:22:37;;;;;;;11.80;4.20;;;9.00;99.90;;;;;;8442216;28;20278;-72
2024/02/02 13:26:41;;;;;;;12.63;4.20;;;9.00;99.90;;;;;;8424591;27;20678;-71
2024/02/02 13:31:04;;;;;;;14.45;3.97;;;9.10;99.90;;;;;;8421630;28;20048;-72
2024/02/02 13:35:09;;;;;;;10.25;3.47;;;9.10;99.90;;;;;;8408627;28;20162;-72
2024/02/02 13:39:18;;;;;;;9.02;3.70;;;9.20;99.90;;;;;;8428337;28;20093;-72
2024/02/02 13:43:21;;;;;;;10.32;3.70;;;9.20;99.90;;;;;;8427352;28;20048;-72
2024/02/02 13:47:23;;;;;;;7.25;3.28;;;9.20;99.90;;;;;;8424155;28;20052;-72
2024/02/02 13:51:28;;;;;;;12.85;3.58;;;9.20;99.90;;;;;;8422741;28;20044;-72
2024/02/02 13:55:31;;;;;;;12.32;4.10;;;9.20;99.90;;;;;;8402579;28;20403;-72
2024/02/02 13:59:33;;;;;;;10.70;3.80;;;9.20;99.90;;;;;;8407705;28;20039;-72
2024/02/02 14:03:35;;;;;;;9.80;4.03;;;9.20;99.90;;;;;;8406035;28;20047;-72
2024/02/02 14:07:37;;;;;;;9.02;3.65;;;9.30;99.90;;;;;;8429465;28;20067;-72
2024/02/02 14:11:40;;;;;;;11.50;3.65;;;9.20;99.90;;;;;;8424440;28;20105;-72
2024/02/02 14:15:42;;;;;;;10.52;4.15;;;9.30;99.90;;;;;;8425761;28;20040;-72
2024/02/02 14:19:43;;;;;;;10.50;4.82;;;9.30;99.90;;;;;;8421696;28;20090;-72
2024/02/02 14:23:45;;;;;;;9.13;3.90;;;9.30;99.90;;;;;;8428770;27;20411;-72
2024/02/02 14:27:47;;;;;;;12.40;5.32;;;9.30;99.90;;;;;;8431625;28;20052;-72
2024/02/02 14:31:57;;;;;;;8.85;4.25;;;9.30;99.90;;;;;;8412026;28;20039;-72
2024/02/02 14:36:01;;;;;;;13.85;4.47;;;9.30;99.90;;;;;;8426481;28;20297;-72
2024/02/02 14:40:04;;;;;;;11.27;4.40;;;9.30;99.90;;;;;;8411017;28;20090;-72
2024/02/02 14:44:05;;;;;;;9.68;4.03;;;9.30;99.90;;;;;;8408057;28;20051;-72
2024/02/02 14:48:07;;;;;;;9.73;4.43;;;9.20;99.90;;;;;;8428217;28;20048;-72
2024/02/02 14:52:09;;;;;;;9.85;4.65;;;9.20;99.90;;;;;;8410886;28;20487;-72
2024/02/02 14:56:11;;;;;;;8.82;4.45;;;9.20;99.90;;;;;;8406537;28;20092;-73
2024/02/02 15:00:29;;;;;;;11.93;5.15;;;9.20;99.90;;;;;;8426715;28;20051;-73
2024/02/02 15:04:32;;;;;;;12.77;5.40;;;9.10;99.90;;;;;;8415883;28;20047;-73
2024/02/02 15:08:34;;;;;;;11.75;5.43;;;9.10;99.90;;;;;;8427565;28;20134;-73
2024/02/02 15:12:36;;;;;;;10.70;4.93;;;9.10;99.90;;;;;;8407721;28;20101;-73
2024/02/02 15:16:38;;;;;;;11.68;4.70;;;9.10;99.90;;;;;;8420094;28;20048;-72
2024/02/02 15:20:40;;;;;;;10.90;4.60;;;9.10;99.90;;;;;;8396276;28;20052;-73
2024/02/02 15:24:42;;;;;;;11.00;5.15;;;9.10;99.90;;;;;;8428824;28;20055;-73
2024/02/02 15:28:44;;;;;;;9.02;4.80;;;9.10;99.90;;;;;;8405107;27;20048;-73
2024/02/02 15:32:46;;;;;;;11.65;5.38;;;9.00;99.90;;;;;;8432955;28;20522;-73
2024/02/02 15:36:47;;;;;;;11.40;5.40;;;9.00;99.90;;;;;;8424524;28;20135;-73
2024/02/02 15:40:50;;;;;;;11.38;4.80;;;9.00;99.90;;;;;;8436576;28;20079;-73
2024/02/02 15:44:52;;;;;;;11.82;5.10;;;9.00;99.90;;;;;;8420801;28;20043;-72
2024/02/02 15:48:54;;;;;;;11.70;5.00;;;9.00;99.90;;;;;;8422192;28;20125;-72
2024/02/02 15:52:57;;;;;;;10.70;5.03;;;8.90;99.90;;;;;;8408224;28;20525;-73
2024/02/02 15:57:02;;;;;;;11.43;5.05;;;9.00;99.90;;;;;;8424301;28;20445;-72
2024/02/02 16:01:04;;;;;;;8.63;4.20;;;9.00;99.90;;;;;;8424451;28;20151;-72
2024/02/02 16:05:06;;;;;;;9.45;5.32;;;9.00;99.90;;;;;;8419663;28;20044;-73
2024/02/02 16:09:11;;;;;;;13.40;5.80;;;9.00;99.90;;;;;;8422506;28;20139;-72
2024/02/02 16:13:14;;;;;;;12.65;5.85;;;8.90;99.90;;;;;;8420006;28;20044;-72
2024/02/02 16:17:15;;;;;;;13.30;5.47;;;8.90;99.90;;;;;;8420807;28;20138;-72
2024/02/02 16:21:17;;;;;;;15.05;6.18;;;9.00;99.90;;;;;;8426555;28;20567;-73
2024/02/02 16:25:21;;;;;;;14.77;6.35;;;9.00;99.90;;;;;;8440728;28;20039;-73
2024/02/02 16:29:22;;;;;;;15.43;5.55;;;9.00;99.90;;;;;;8410934;28;20074;-72
2024/02/02 16:33:24;;;;;;;16.52;6.25;;;9.00;99.90;;;;;;8430379;28;20063;-73
2024/02/02 16:37:26;;;;;;;13.57;5.88;;;9.00;99.90;;;;;;8428684;28;20381;-72
2024/02/02 16:41:28;;;;;;;11.27;4.80;;;9.00;99.90;;;;;;8416115;28;20044;-72
2024/02/02 16:45:30;;;;;;;12.57;4.93;;;9.00;99.90;;;;;;8430566;28;20503;-73
2024/02/02 16:49:32;;;;;;;10.98;5.45;;;9.00;99.90;;;;;;8436170;28;20062;-72
2024/02/02 16:53:34;;;;;;;11.55;5.05;;;9.00;99.90;;;;;;8414559;28;20047;-72
2024/02/02 16:57:38;;;;;;;11.20;5.78;;;9.00;99.90;;;;;;8411620;28;20365;-73
2024/02/02 17:01:40;;;;;;;14.05;5.25;;;8.90;99.90;;;;;;8428978;28;20044;-73
2024/02/02 17:05:42;;;;;;;11.35;4.95;;;8.90;99.90;;;;;;8425825;28;20039;-72
2024/02/02 17:09:45;;;;;;;9.93;5.28;;;9.00;99.90;;;;;;8427277;28;20103;-73
2024/02/02 17:13:47;;;;;;;10.30;4.78;;;9.00;99.90;;;;;;8429247;28;20532;-73
2024/02/02 17:17:49;;;;;;;13.55;5.95;;;9.00;99.90;;;;;;8431113;28;20055;-73
2024/02/02 17:21:51;;;;;;;13.82;6.93;;;9.00;99.90;;;;;;8430556;27;20055;-73
2024/02/02 17:25:53;;;;;;;10.25;5.88;;;9.00;99.90;;;;;;8428623;27;21090;-73
2024/02/02 17:29:55;;;;;;;16.65;7.35;;;9.00;99.90;;;;;;8415611;28;20087;-73
2024/02/02 17:33:56;;;;;;;15.20;5.85;;;9.10;99.90;;;;;;8430165;27;20506;-73
2024/02/02 17:37:58;;;;;;;15.00;7.13;;;9.10;99.90;;;;;;8431017;27;20063;-73
2024/02/02 17:42:00;;;;;;;12.85;5.93;;;9.10;99.90;;;;;;8431225;27;20637;-73
2024/02/02 17:46:05;;;;;;;12.85;5.88;;;9.00;99.90;;;;;;8435982;28;20067;-73
2024/02/02 17:50:07;;;;;;;15.35;6.75;;;9.00;99.90;;;;;;8437860;28;20547;-73
2024/02/02 17:54:10;;;;;;;12.57;6.10;;;9.00;99.90;;;;;;8429150;27;20171;-73
2024/02/02 17:58:12;;;;;;;15.10;6.57;;;9.00;99.90;;;;;;8429664;28;20044;-73
2024/02/02 18:02:14;;;;;;;12.60;5.85;;;9.00;99.90;;;;;;8430340;28;20171;-73
2024/02/02 18:06:15;;;;;;;14.30;6.78;;;9.00;99.90;;;;;;8425228;28;20039;-72
2024/02/02 18:10:17;;;;;;;11.88;6.40;;;9.00;99.90;;;;;;8435636;27;20040;-73
2024/02/02 18:14:22;;;;;;;13.98;6.80;;;9.00;99.90;;;;;;8429684;28;20044;-73
2024/02/02 18:18:26;;;;;;;12.57;6.63;;;9.00;99.90;;;;;;8438232;28;20094;-72
2024/02/02 18:22:28;;;;;;;14.50;6.75;;;9.00;99.90;;;;;;8430008;28;20055;-72
2024/02/02 18:26:29;;;;;;;15.43;7.47;;;9.00;99.90;;;;;;8446920;28;20063;-73
2024/02/02 18:30:31;;;;;;;13.18;6.88;;;9.00;99.90;;;;;;8429254;28;20040;-73
2024/02/02 18:34:36;;;;;;;13.52;6.88;;;9.00;99.90;;;;;;8414840;28;20088;-73
2024/02/02 18:38:40;;;;;;;15.13;7.35;;;9.00;99.90;;;;;;8418484;27;20047;-73
2024/02/02 18:42:42;;;;;;;12.63;7.28;;;9.00;99.90;;;;;;8440492;28;20047;-73
2024/02/02 18:46:44;;;;;;;19.63;8.13;;;9.00;99.90;;;;;;8433416;27;20403;-73
2024/02/02 18:50:46;;;;;;;14.02;7.20;;;9.00;99.90;;;;;;8423159;28;20533;-73
2024/02/02 18:54:47;;;;;;;17.85;8.07;;;9.00;99.90;;;;;;8442209;28;20043;-73
2024/02/02 18:58:49;;;;;;;19.80;8.65;;;9.00;99.90;;;;;;8437995;28;20055;-72
2024/02/02 19:02:51;;;;;;;15.23;8.23;;;9.00;99.90;;;;;;8432526;28;20096;-73
2024/02/02 19:06:53;;;;;;;15.15;8.55;;;9.00;99.90;;;;;;8420853;27;20042;-72
2024/02/02 19:10:55;;;;;;;17.98;7.47;;;9.00;99.90;;;;;;8432495;27;20047;-73
2024/02/02 19:14:58;;;;;;;19.27;8.02;;;9.00;99.90;;;;;;8413492;28;20106;-73
2024/02/02 19:19:00;;;;;;;15.90;7.40;;;9.00;99.90;;;;;;8430283;27;20056;-73
2024/02/02 19:23:03;;;;;;;18.30;8.50;;;9.00;99.90;;;;;;8431788;27;20579;-73
2024/02/02 19:27:04;;;;;;;20.88;10.20;;;9.00;99.90;;;;;;8426828;27;20494;-72
2024/02/02 19:31:07;;;;;;;16.77;8.25;;;9.00;99.90;;;;;;8429092;27;20440;-73
2024/02/02 19:35:22;;;;;;;22.45;9.52;;;8.90;99.90;;;;;;8428770;27;20040;-73
2024/02/02 19:39:24;;;;;;;20.10;8.63;;;9.00;99.90;;;;;;8409896;28;20052;-73
2024/02/02 19:43:26;;;;;;;15.80;8.50;;;8.90;99.90;;;;;;8430357;27;20495;-73
2024/02/02 19:47:28;;;;;;;17.48;8.68;;;9.00;99.90;;;;;;8431519;28;20084;-73
2024/02/02 19:51:30;;;;;;;18.27;9.70;;;8.90;99.90;;;;;;8422931;28;20051;-73
2024/02/02 19:55:32;;;;;;;14.60;7.47;;;8.90;99.90;;;;;;8408743;28;20403;-73
2024/02/02 19:59:35;;;;;;;17.60;8.60;;;8.90;99.90;;;;;;8424499;28;20487;-73
2024/02/02 20:03:37;;;;;;;19.08;9.05;;;8.90;99.90;;;;;;8405628;28;20120;-73
2024/02/02 20:07:39;;;;;;;13.70;7.32;;;8.90;99.90;;;;;;8424297;28;20483;-73
2024/02/02 20:11:41;;;;;;;18.23;8.13;;;8.90;99.90;;;;;;8423866;28;20131;-73
2024/02/02 20:15:43;;;;;;;17.15;8.25;;;8.90;99.90;;;;;;8427379;28;20054;-73
2024/02/02 20:19:44;;;;;;;19.05;8.63;;;8.90;99.90;;;;;;8424907;28;20548;-72
2024/02/02 20:23:51;;;;;;;18.52;8.05;;;8.90;99.90;;;;;;8427656;28;20100;-72
2024/02/02 20:27:52;;;;;;;17.55;8.32;;;8.90;99.90;;;;;;8425593;28;20176;-72
2024/02/02 20:31:55;;;;;;;15.02;9.02;;;8.90;99.90;;;;;;8410174;28;20048;-73
2024/02/02 20:35:57;;;;;;;16.38;8.70;;;8.90;99.90;;;;;;8423856;28;20044;-72
2024/02/02 20:39:59;;;;;;;14.02;7.05;;;8.90;99.90;;;;;;8423339;28;20380;-72
2024/02/02 20:44:01;;;;;;;14.50;7.38;;;9.00;99.90;;;;;;8424775;28;20145;-72
2024/02/02 20:48:03;;;;;;;17.58;8.35;;;9.00;99.90;;;;;;8423432;28;20089;-73
2024/02/02 20:52:05;;;;;;;16.75;7.85;;;9.00;99.90;;;;;;8405822;28;20051;-73
2024/02/02 20:56:07;;;;;;;15.45;8.30;;;8.90;99.90;;;;;;8420808;28;20135;-73
2024/02/02 21:00:11;;;;;;;18.15;8.07;;;8.90;99.90;;;;;;8405901;28;20048;-72
2024/02/02 21:04:13;;;;;;;15.98;7.93;;;8.90;99.90;;;;;;8427001;28;20100;-73
2024/02/02 21:08:15;;;;;;;18.80;7.80;;;8.80;99.90;;;;;;8424392;28;20066;-72
2024/02/02 21:12:17;;;;;;;14.77;6.85;;;8.80;99.90;;;;;;8420457;28;20112;-73
2024/02/02 21:16:19;;;;;;;15.88;7.25;;;8.80;99.90;;;;;;8422897;28;20047;-73
2024/02/02 21:20:22;;;;;;;19.00;8.55;;;8.80;99.90;;;;;;8408998;28;20530;-73
2024/02/02 21:24:23;;;;;;;14.10;7.35;;;8.80;99.90;;;;;;8428210;28;20051;-73
2024/02/02 21:28:25;;;;;;;18.27;8.40;;;8.80;99.90;;;;;;8426936;28;20044;-73